createdAt,value
2022-10-22T00:00:03.600Z,0.05
2022-10-22T00:05:00.902Z,0.05
2022-10-22T00:09:59.978Z,0.05
2022-10-22T00:15:00.420Z,0.05
2022-10-22T00:19:59.224Z,0.05
2022-10-22T00:24:58.813Z,0.05
2022-10-22T00:29:58.057Z,0.05
2022-10-22T00:34:58.133Z,0.05
2022-10-22T00:39:57.084Z,0.04
2022-10-22T00:44:58.178Z,0.05
2022-10-22T00:49:55.523Z,0.05
2022-10-22T00:54:55.557Z,0.05
2022-10-22T00:59:28.501Z,0.05
2022-10-22T01:04:16.286Z,0.05
2022-10-22T01:09:16.097Z,0.05
2022-10-22T01:14:17.043Z,0.05
2022-10-22T01:19:15.160Z,0.05
2022-10-22T01:24:14.511Z,0.05
2022-10-22T01:29:13.461Z,0.05
2022-10-22T01:34:13.676Z,0.05
2022-10-22T01:39:12.856Z,0.05
2022-10-22T01:44:14.115Z,0.05
2022-10-22T01:49:10.767Z,0.05
2022-10-22T01:54:11.171Z,0.05
2022-10-22T01:58:56.735Z,0.05
2022-10-22T02:03:56.327Z,0.05
2022-10-22T02:08:55.346Z,0.05
2022-10-22T02:13:54.494Z,0.05
2022-10-22T02:18:54.184Z,0.05
2022-10-22T02:23:53.800Z,0.05
2022-10-22T02:28:53.077Z,0.05
2022-10-22T02:33:52.705Z,0.05
2022-10-22T02:38:52.420Z,0.05
2022-10-22T02:43:52.292Z,0.05
2022-10-22T02:48:50.376Z,0.05
2022-10-22T02:53:49.626Z,0.05
2022-10-22T02:58:49.642Z,0.05
2022-10-22T03:03:49.369Z,0.05
2022-10-22T03:08:48.354Z,0.05
2022-10-22T03:13:47.383Z,0.05
2022-10-22T03:18:47.974Z,0.05
2022-10-22T03:23:47.217Z,0.05
2022-10-22T03:28:47.446Z,0.05
2022-10-22T03:33:44.657Z,0.05
2022-10-22T03:38:44.396Z,0.05
2022-10-22T03:43:43.135Z,0.05
2022-10-22T03:48:43.101Z,0.05
2022-10-22T03:53:41.209Z,0.05
2022-10-22T03:58:40.830Z,0.05
2022-10-22T04:03:40.917Z,0.05
2022-10-22T04:08:40.693Z,0.05
2022-10-22T04:13:39.550Z,0.05
2022-10-22T04:18:40.000Z,0.05
2022-10-22T04:23:38.898Z,0.05
2022-10-22T04:28:38.653Z,0.05
2022-10-22T04:33:36.994Z,0.05
2022-10-22T04:38:36.674Z,0.05
2022-10-22T04:43:37.079Z,0.05
2022-10-22T04:48:36.389Z,0.05
2022-10-22T04:53:35.103Z,0.05
2022-10-22T04:58:34.892Z,0.05
2022-10-22T04:59:55.937Z,0.05
2022-10-22T05:04:55.928Z,0.05
2022-10-22T05:09:56.236Z,0.04
2022-10-22T05:14:53.178Z,0.05
2022-10-22T05:19:53.314Z,0.05
2022-10-22T05:24:52.507Z,0.05
2022-10-22T05:29:51.705Z,0.05
2022-10-22T05:34:49.650Z,0.05
2022-10-22T05:40:06.843Z,0.06
2022-10-22T05:44:49.799Z,0.07
2022-10-22T05:49:48.875Z,0.09
2022-10-22T05:54:47.041Z,0.14
2022-10-22T05:59:15.150Z,0.2
2022-10-22T06:04:14.508Z,0.26
2022-10-22T06:09:13.888Z,0.29
2022-10-22T06:14:12.886Z,0.26
2022-10-22T06:19:12.104Z,0.31
2022-10-22T06:24:12.711Z,0.37
2022-10-22T06:29:11.342Z,0.54
2022-10-22T06:34:31.808Z,0.83
2022-10-22T06:39:10.365Z,0.99
2022-10-22T06:44:10.540Z,1.14
2022-10-22T06:49:09.411Z,1.31
2022-10-22T06:54:10.475Z,1.52
2022-10-22T06:58:54.486Z,1.73
2022-10-22T07:03:54.532Z,1.97
2022-10-22T07:08:54.151Z,2.26
2022-10-22T07:13:53.743Z,2.58
2022-10-22T07:18:51.898Z,2.81
2022-10-22T07:23:52.827Z,2.97
2022-10-22T07:28:51.795Z,3.2
2022-10-22T07:33:52.939Z,3.4
2022-10-22T07:38:50.121Z,3.72
2022-10-22T07:43:50.604Z,4.87
2022-10-22T07:48:49.437Z,4.28
2022-10-22T07:53:49.918Z,4.2
2022-10-22T07:58:48.063Z,4.31
2022-10-22T08:00:14.619Z,4.36
2022-10-22T08:05:09.183Z,4.53
2022-10-22T08:10:07.827Z,4.59
2022-10-22T08:15:07.076Z,4.63
2022-10-22T08:20:06.695Z,4.69
2022-10-22T08:25:06.662Z,4.67
2022-10-22T08:30:06.686Z,4.73
2022-10-22T08:35:06.538Z,4.86
2022-10-22T08:40:03.989Z,4.92
2022-10-22T08:45:04.052Z,5.28
2022-10-22T08:50:02.988Z,5.19
2022-10-22T08:55:02.711Z,5.33
2022-10-22T08:59:33.358Z,5.56
2022-10-22T09:04:34.178Z,5.78
2022-10-22T09:09:35.247Z,5.61
2022-10-22T09:14:32.151Z,5.62
2022-10-22T09:19:33.372Z,5.77
2022-10-22T09:24:35.278Z,6.07
2022-10-22T09:29:30.611Z,6.22
2022-10-22T09:34:30.100Z,6.24
2022-10-22T09:39:30.470Z,6.61
2022-10-22T09:44:29.690Z,7.7
2022-10-22T09:49:30.197Z,7.04
2022-10-22T09:54:29.619Z,6.61
2022-10-22T09:59:03.996Z,6.67
2022-10-22T10:04:09.282Z,7.03
2022-10-22T10:09:01.533Z,7.05
2022-10-22T10:14:00.331Z,8
2022-10-22T10:18:59.755Z,8.97
2022-10-22T10:23:58.579Z,13.22
2022-10-22T10:28:57.867Z,13.86
2022-10-22T10:33:58.182Z,14.2
2022-10-22T10:38:58.033Z,14.57
2022-10-22T10:43:57.930Z,11.73
2022-10-22T10:48:58.459Z,10.33
2022-10-22T10:53:57.505Z,15.31
2022-10-22T10:58:57.244Z,14.78
2022-10-22T11:03:55.583Z,14.74
2022-10-22T11:08:56.517Z,14.72
2022-10-22T11:13:56.808Z,14.95
2022-10-22T11:18:56.155Z,14.73
2022-10-22T11:23:55.297Z,14.71
2022-10-22T11:28:54.672Z,14.82
2022-10-22T11:34:34.927Z,14.71
2022-10-22T11:38:53.904Z,14.54
2022-10-22T11:43:55.191Z,14.41
2022-10-22T11:48:52.648Z,14.45
2022-10-22T11:53:52.725Z,14.17
2022-10-22T11:58:56.452Z,14.05
2022-10-22T12:03:51.178Z,14.14
2022-10-22T12:08:49.572Z,13.84
2022-10-22T12:13:48.803Z,13.65
2022-10-22T12:18:48.965Z,13.36
2022-10-22T12:23:47.794Z,13.15
2022-10-22T12:28:45.379Z,12.95
2022-10-22T12:33:45.576Z,12.7
2022-10-22T12:38:44.476Z,12.48
2022-10-22T12:43:44.408Z,12.25
2022-10-22T12:48:43.061Z,11.97
2022-10-22T12:53:43.083Z,11.66
2022-10-22T12:58:42.704Z,11.56
2022-10-22T13:00:20.616Z,11.44
2022-10-22T13:05:03.445Z,10.95
2022-10-22T13:10:03.098Z,10.63
2022-10-22T13:15:03.107Z,10.27
2022-10-22T13:20:01.818Z,9.98
2022-10-22T13:25:02.698Z,9.66
2022-10-22T13:29:59.496Z,9.33
2022-10-22T13:34:59.412Z,9.04
2022-10-22T13:39:59.476Z,8.68
2022-10-22T13:44:58.553Z,8.34
2022-10-22T13:49:58.533Z,8.02
2022-10-22T13:54:57.527Z,7.64
2022-10-22T13:59:30.525Z,7.33
2022-10-22T14:04:17.021Z,6.97
2022-10-22T14:09:16.916Z,6.62
2022-10-22T14:14:15.941Z,6.26
2022-10-22T14:19:14.864Z,5.91
2022-10-22T14:24:15.578Z,5.56
2022-10-22T14:29:13.588Z,5.21
2022-10-22T14:34:12.885Z,4.87
2022-10-22T14:39:11.787Z,4.53
2022-10-22T14:44:11.255Z,4.21
2022-10-22T14:49:09.913Z,3.89
2022-10-22T14:54:09.741Z,3.22
2022-10-22T14:58:55.374Z,2.89
2022-10-22T15:03:56.406Z,2.67
2022-10-22T15:08:54.339Z,2.59
2022-10-22T15:13:54.188Z,2.31
2022-10-22T15:18:52.673Z,2.08
2022-10-22T15:23:51.479Z,1.9
2022-10-22T15:28:49.363Z,1.66
2022-10-22T15:33:48.747Z,1.47
2022-10-22T15:38:48.589Z,1.28
2022-10-22T15:43:48.863Z,1.1
2022-10-22T15:48:45.839Z,0.94
2022-10-22T15:53:45.707Z,0.78
2022-10-22T15:58:44.529Z,0.64
2022-10-22T16:00:06.732Z,0.61
2022-10-22T16:05:04.815Z,0.48
2022-10-22T16:10:04.265Z,0.37
2022-10-22T16:15:04.294Z,0.28
2022-10-22T16:20:04.031Z,0.26
2022-10-22T16:25:03.026Z,0.18
2022-10-22T16:30:03.270Z,0.12
2022-10-22T16:35:02.235Z,0.08
2022-10-22T16:40:09.025Z,0.06
2022-10-22T16:45:01.482Z,0.06
2022-10-22T16:49:59.087Z,0.05
2022-10-22T16:54:58.306Z,0.05
2022-10-22T16:59:28.792Z,0.05
2022-10-22T17:04:30.154Z,0.05
2022-10-22T17:09:16.474Z,0.05
2022-10-22T17:14:15.880Z,0.05
2022-10-22T17:19:15.014Z,0.05
2022-10-22T17:24:13.946Z,0.05
2022-10-22T17:29:13.117Z,0.05
2022-10-22T17:34:13.585Z,0.05
2022-10-22T17:39:12.806Z,0.05
2022-10-22T17:44:12.108Z,0.05
2022-10-22T17:49:11.297Z,0.05
2022-10-22T17:54:12.670Z,0.05
2022-10-22T17:59:01.642Z,0.05
2022-10-22T18:04:02.493Z,0.05
2022-10-22T18:08:59.279Z,0.05
2022-10-22T18:13:59.416Z,0.05
2022-10-22T18:18:59.091Z,0.05
2022-10-22T18:23:58.697Z,0.05
2022-10-22T18:28:56.911Z,0.05
2022-10-22T18:33:57.083Z,0.05
2022-10-22T18:38:56.294Z,0.05
2022-10-22T18:43:55.958Z,0.05
2022-10-22T18:49:01.128Z,0.05
2022-10-22T18:54:25.120Z,0.05
2022-10-22T18:58:55.234Z,0.05
2022-10-22T19:03:55.130Z,0.05
2022-10-22T19:08:55.223Z,0.05
2022-10-22T19:13:55.095Z,0.05
2022-10-22T19:18:53.617Z,0.05
2022-10-22T19:23:53.196Z,0.05
2022-10-22T19:28:52.059Z,0.05
2022-10-22T19:33:52.220Z,0.05
2022-10-22T19:38:50.408Z,0.05
2022-10-22T19:43:50.328Z,0.05
2022-10-22T19:48:49.969Z,0.05
2022-10-22T19:53:49.546Z,0.05
2022-10-22T19:58:50.048Z,0.05
2022-10-22T20:03:46.932Z,0.05
2022-10-22T20:08:49.033Z,0.05
2022-10-22T20:13:53.974Z,0.05
2022-10-22T20:18:45.414Z,0.05
2022-10-22T20:23:43.956Z,0.05
2022-10-22T20:28:43.874Z,0.05
2022-10-22T20:33:43.677Z,0.05
2022-10-22T20:38:44.324Z,0.05
2022-10-22T20:43:41.586Z,0.05
2022-10-22T20:48:41.626Z,0.05
2022-10-22T20:53:40.566Z,0.05
2022-10-22T20:58:39.764Z,0.05
2022-10-22T21:00:01.556Z,0.05
2022-10-22T21:05:01.348Z,0.05
2022-10-22T21:10:00.811Z,0.05
2022-10-22T21:15:00.582Z,0.05
2022-10-22T21:20:00.377Z,0.05
2022-10-22T21:24:59.515Z,0.05
2022-10-22T21:29:58.918Z,0.05
2022-10-22T21:34:58.614Z,0.05
2022-10-22T21:39:59.388Z,0.04
2022-10-22T21:44:56.779Z,0.05
2022-10-22T21:49:56.441Z,0.05
2022-10-22T21:54:55.779Z,0.05
2022-10-22T21:59:16.179Z,0.04
2022-10-22T22:04:14.666Z,0.05
2022-10-22T22:09:14.884Z,0.05
2022-10-22T22:14:14.222Z,0.05
2022-10-22T22:19:15.186Z,0.05
2022-10-22T22:24:12.395Z,0.05
2022-10-22T22:29:12.475Z,0.05
2022-10-22T22:34:11.577Z,0.05
2022-10-22T22:39:10.970Z,0.05
2022-10-22T22:44:09.191Z,0.05
2022-10-22T22:49:08.924Z,0.05
2022-10-22T22:54:09.052Z,0.05
2022-10-22T22:59:01.398Z,0.05
2022-10-22T23:04:01.546Z,0.05
2022-10-22T23:09:01.277Z,0.05
2022-10-22T23:13:59.919Z,0.05
2022-10-22T23:18:58.935Z,0.05
2022-10-22T23:24:00.030Z,0.05
2022-10-22T23:28:57.324Z,0.05
2022-10-22T23:33:56.984Z,0.05
2022-10-22T23:38:55.735Z,0.05
2022-10-22T23:43:56.069Z,0.05
2022-10-22T23:48:53.491Z,0.05
2022-10-22T23:53:54.157Z,0.05
2022-10-22T23:58:52.672Z,0.05
